UAL305 KEWR-LDSP
Flight info
| Callsign | UAL305 |
|---|---|
| Flight time | N/A |
| Altitude | 35000 |
| Route | MERIT DCT HFD DCT PUT DCT KANNI N171E PORTI/M084F370 DCT 47N050W 49N040W 51N030W 52N020W DCT LIMRI/N0482F370 DCT XETBO/M084F390 DCT LULOX/N0482F390 DCT LIZAD DCT JSY DCT TURDU DCT TADUP DCT TEPRI UN491 POGZI DCT GELTA DCT LUVAL DCT SHARA DCT DEVDI DCT RIPUS DCT RESIA DCT IXONA DCT SAL |
| Aircraft | B772/H-SDE2E3FGHIJ5LORVWXY/A1E2C4 |
Departure
| Time | 2026-05-05 14:26 |
|---|---|
| Airport | Newark Liberty International Airport (KEWR) |
Arrival
| Time | N/A |
|---|---|
| Airport | Split Saint Jerome Airport (LDSP) |
| Time | Latitude | Longitude | Altitude | Speed | Heading |
|---|---|---|---|---|---|
| 2026-05-05 13:58 | 40.69879 | -74.17779 | 26 ft | 0 kts | 270° |
| 2026-05-05 14:17 | 40.69879 | -74.17775 | 26 ft | 1 kts | 278° |
| 2026-05-05 14:17 | 40.69874 | -74.17760 | 26 ft | 2 kts | 304° |
| 2026-05-05 14:17 | 40.69868 | -74.17742 | 26 ft | 2 kts | 277° |
| 2026-05-05 14:18 | 40.69867 | -74.17722 | 26 ft | 2 kts | 289° |
| 2026-05-05 14:18 | 40.69859 | -74.17707 | 26 ft | 2 kts | 332° |
| 2026-05-05 14:18 | 40.69844 | -74.17703 | 26 ft | 2 kts | 7° |
| 2026-05-05 14:18 | 40.69832 | -74.17708 | 26 ft | 0 kts | 39° |
| 2026-05-05 14:19 | 40.69827 | -74.17712 | 26 ft | 0 kts | 41° |
| 2026-05-05 14:20 | 40.69828 | -74.17712 | 26 ft | 0 kts | 40° |
| 2026-05-05 14:20 | 40.69871 | -74.17664 | 26 ft | 15 kts | 40° |
| 2026-05-05 14:21 | 40.69921 | -74.17539 | 26 ft | 15 kts | 67° |
| 2026-05-05 14:21 | 40.69994 | -74.17441 | 26 ft | 15 kts | 40° |
| 2026-05-05 14:21 | 40.70079 | -74.17367 | 26 ft | 14 kts | 32° |
| 2026-05-05 14:21 | 40.70117 | -74.17255 | 26 ft | 13 kts | 92° |
| 2026-05-05 14:22 | 40.70107 | -74.17094 | 26 ft | 24 kts | 96° |
| 2026-05-05 14:22 | 40.70095 | -74.16888 | 26 ft | 21 kts | 97° |
| 2026-05-05 14:22 | 40.70081 | -74.16698 | 25 ft | 18 kts | 95° |
| 2026-05-05 14:22 | 40.70071 | -74.16542 | 25 ft | 12 kts | 95° |
| 2026-05-05 14:23 | 40.70067 | -74.16480 | 25 ft | 0 kts | 95° |
| 2026-05-05 14:24 | 40.70065 | -74.16451 | 25 ft | 15 kts | 98° |
| 2026-05-05 14:24 | 40.70013 | -74.16387 | 25 ft | 10 kts | 184° |
| 2026-05-05 14:24 | 40.69972 | -74.16402 | 25 ft | 0 kts | 207° |
| 2026-05-05 14:25 | 40.69847 | -74.16484 | 25 ft | 50 kts | 206° |
| 2026-05-05 14:25 | 40.69329 | -74.16809 | 26 ft | 111 kts | 205° |
| 2026-05-05 14:25 | 40.68480 | -74.17357 | 35 ft | 160 kts | 207° |
| 2026-05-05 14:26 | 40.67425 | -74.18047 | 399 ft | 173 kts | 208° |
| 2026-05-05 14:26 | 40.66319 | -74.18686 | 1102 ft | 175 kts | 195° |
| 2026-05-05 14:26 | 40.65144 | -74.19052 | 1561 ft | 178 kts | 199° |
| 2026-05-05 14:26 | 40.63996 | -74.19714 | 1933 ft | 183 kts | 214° |
| 2026-05-05 14:27 | 40.62941 | -74.20654 | 2417 ft | 182 kts | 222° |
| 2026-05-05 14:27 | 40.62209 | -74.21939 | 2971 ft | 175 kts | 250° |
| 2026-05-05 14:27 | 40.62135 | -74.23509 | 3296 ft | 187 kts | 279° |
| 2026-05-05 14:27 | 40.62818 | -74.25176 | 3054 ft | 229 kts | 308° |
| 2026-05-05 14:28 | 40.63999 | -74.26696 | 3421 ft | 246 kts | 315° |
| 2026-05-05 14:28 | 40.65368 | -74.28115 | 3990 ft | 257 kts | 317° |
| 2026-05-05 14:28 | 40.66804 | -74.29539 | 4607 ft | 264 kts | 318° |
| 2026-05-05 14:28 | 40.68289 | -74.30991 | 5298 ft | 268 kts | 317° |
| 2026-05-05 14:29 | 40.69815 | -74.32442 | 5955 ft | 274 kts | 323° |
| 2026-05-05 14:29 | 40.71642 | -74.33241 | 6534 ft | 291 kts | 351° |
| 2026-05-05 14:29 | 40.73687 | -74.32922 | 7147 ft | 305 kts | 16° |
| 2026-05-05 14:29 | 40.75602 | -74.31664 | 7771 ft | 311 kts | 27° |
| 2026-05-05 14:30 | 40.77465 | -74.30228 | 8442 ft | 314 kts | 28° |
| 2026-05-05 14:30 | 40.79368 | -74.28756 | 9098 ft | 317 kts | 27° |
| 2026-05-05 14:30 | 40.81260 | -74.27293 | 9735 ft | 320 kts | 28° |
| 2026-05-05 14:30 | 40.83186 | -74.25806 | 10312 ft | 326 kts | 27° |
| 2026-05-05 14:31 | 40.85174 | -74.24211 | 10633 ft | 342 kts | 34° |
| 2026-05-05 14:31 | 40.86903 | -74.21936 | 10907 ft | 362 kts | 53° |
| 2026-05-05 14:31 | 40.88335 | -74.19121 | 11272 ft | 377 kts | 58° |
| 2026-05-05 14:31 | 40.89766 | -74.16131 | 11655 ft | 391 kts | 58° |
| 2026-05-05 14:32 | 40.91236 | -74.13058 | 12049 ft | 404 kts | 57° |
| 2026-05-05 14:32 | 40.92748 | -74.09907 | 12533 ft | 414 kts | 58° |
| 2026-05-05 14:32 | 40.94293 | -74.06673 | 13193 ft | 419 kts | 57° |
| 2026-05-05 14:32 | 40.95872 | -74.03387 | 13868 ft | 422 kts | 57° |
| 2026-05-05 14:33 | 40.97431 | -74.00092 | 14508 ft | 426 kts | 57° |
| 2026-05-05 14:33 | 40.99005 | -73.96794 | 15121 ft | 431 kts | 57° |
| 2026-05-05 14:33 | 41.00600 | -73.93446 | 15731 ft | 434 kts | 58° |
| 2026-05-05 14:33 | 41.02216 | -73.90057 | 16333 ft | 438 kts | 57° |
| 2026-05-05 14:34 | 41.03847 | -73.86645 | 16914 ft | 441 kts | 57° |
| 2026-05-05 14:34 | 41.05497 | -73.83182 | 17491 ft | 445 kts | 57° |
| 2026-05-05 14:34 | 41.07136 | -73.79739 | 18055 ft | 448 kts | 57° |
| 2026-05-05 14:34 | 41.08795 | -73.76250 | 18608 ft | 451 kts | 57° |
| 2026-05-05 14:35 | 41.10486 | -73.72690 | 19152 ft | 455 kts | 57° |
| 2026-05-05 14:35 | 41.12164 | -73.69153 | 19663 ft | 458 kts | 57° |
| 2026-05-05 14:35 | 41.13846 | -73.65602 | 20168 ft | 461 kts | 57° |
| 2026-05-05 14:35 | 41.15554 | -73.61993 | 20665 ft | 465 kts | 57° |
| 2026-05-05 14:36 | 41.17276 | -73.58351 | 21168 ft | 467 kts | 57° |
| 2026-05-05 14:36 | 41.19011 | -73.54675 | 21671 ft | 470 kts | 57° |
| 2026-05-05 14:36 | 41.20726 | -73.51038 | 22159 ft | 472 kts | 57° |
| 2026-05-05 14:36 | 41.22467 | -73.47340 | 22634 ft | 474 kts | 57° |
| 2026-05-05 14:37 | 41.24215 | -73.43625 | 23101 ft | 477 kts | 57° |
| 2026-05-05 14:37 | 41.25976 | -73.39877 | 23571 ft | 479 kts | 57° |
| 2026-05-05 14:37 | 41.27737 | -73.36124 | 24032 ft | 481 kts | 57° |
| 2026-05-05 14:37 | 41.29511 | -73.32339 | 24479 ft | 483 kts | 58° |
| 2026-05-05 14:38 | 41.31273 | -73.28574 | 24885 ft | 486 kts | 58° |
| 2026-05-05 14:38 | 41.33068 | -73.24734 | 25305 ft | 489 kts | 58° |
| 2026-05-05 14:38 | 41.34851 | -73.20916 | 25727 ft | 491 kts | 58° |
| 2026-05-05 14:38 | 41.36657 | -73.17045 | 26146 ft | 493 kts | 58° |
| 2026-05-05 14:39 | 41.38450 | -73.13197 | 26545 ft | 495 kts | 58° |
| 2026-05-05 14:39 | 41.40235 | -73.09221 | 26947 ft | 498 kts | 59° |
| 2026-05-05 14:39 | 41.41967 | -73.05290 | 27331 ft | 500 kts | 59° |
| 2026-05-05 14:39 | 41.43723 | -73.01302 | 27713 ft | 502 kts | 59° |
| 2026-05-05 14:40 | 41.45508 | -72.97245 | 28100 ft | 504 kts | 59° |
| 2026-05-05 14:40 | 41.47281 | -72.93214 | 28483 ft | 506 kts | 59° |
| 2026-05-05 14:40 | 41.49081 | -72.89119 | 28867 ft | 508 kts | 59° |
| 2026-05-05 14:40 | 41.50865 | -72.85055 | 29230 ft | 510 kts | 59° |
| 2026-05-05 14:41 | 41.52652 | -72.80981 | 29599 ft | 512 kts | 59° |
| 2026-05-05 14:41 | 41.54458 | -72.76862 | 29966 ft | 514 kts | 59° |
| 2026-05-05 14:41 | 41.56261 | -72.72742 | 30345 ft | 516 kts | 59° |
| 2026-05-05 14:41 | 41.58064 | -72.68617 | 30818 ft | 515 kts | 59° |
| 2026-05-05 14:42 | 41.59874 | -72.64470 | 31344 ft | 512 kts | 59° |
| 2026-05-05 14:42 | 41.61654 | -72.60387 | 31833 ft | 509 kts | 59° |
| 2026-05-05 14:42 | 41.63418 | -72.56334 | 32269 ft | 508 kts | 59° |
| 2026-05-05 14:42 | 41.65184 | -72.52309 | 32693 ft | 507 kts | 58° |
| 2026-05-05 14:43 | 41.67000 | -72.48286 | 33145 ft | 506 kts | 58° |
| 2026-05-05 14:43 | 41.68824 | -72.44256 | 33602 ft | 504 kts | 58° |
| 2026-05-05 14:43 | 41.70638 | -72.40239 | 34043 ft | 503 kts | 58° |
| 2026-05-05 14:43 | 41.72435 | -72.36253 | 34456 ft | 501 kts | 58° |
| 2026-05-05 14:44 | 41.74223 | -72.32277 | 34829 ft | 500 kts | 58° |
| 2026-05-05 14:44 | 41.75990 | -72.28343 | 35002 ft | 503 kts | 58° |
| 2026-05-05 14:44 | 41.79606 | -72.20272 | 34989 ft | 501 kts | 58° |
| 2026-05-05 14:45 | 41.83125 | -72.12393 | 34955 ft | 496 kts | 58° |
| 2026-05-05 14:45 | 41.86682 | -72.04406 | 34930 ft | 499 kts | 58° |
| 2026-05-05 14:46 | 41.90205 | -71.96474 | 34911 ft | 497 kts | 58° |
| 2026-05-05 14:46 | 41.93724 | -71.88508 | 34918 ft | 499 kts | 60° |
| 2026-05-05 14:47 | 41.96243 | -71.79826 | 34930 ft | 499 kts | 76° |
| 2026-05-05 14:47 | 41.97747 | -71.70768 | 34933 ft | 499 kts | 77° |
| 2026-05-05 14:48 | 41.99206 | -71.61727 | 34933 ft | 499 kts | 77° |
| 2026-05-05 14:48 | 42.00667 | -71.52613 | 34935 ft | 499 kts | 77° |
| 2026-05-05 14:49 | 42.02114 | -71.43530 | 34938 ft | 499 kts | 77° |
| 2026-05-05 14:49 | 42.03560 | -71.34399 | 34941 ft | 500 kts | 78° |
| 2026-05-05 14:50 | 42.04989 | -71.25329 | 34935 ft | 500 kts | 78° |
| 2026-05-05 14:50 | 42.06421 | -71.16190 | 34930 ft | 502 kts | 78° |
| 2026-05-05 14:51 | 42.07846 | -71.07040 | 34929 ft | 502 kts | 77° |
| 2026-05-05 14:51 | 42.09275 | -70.97814 | 34929 ft | 502 kts | 77° |
| 2026-05-05 14:52 | 42.10681 | -70.88680 | 34933 ft | 503 kts | 77° |
| 2026-05-05 14:52 | 42.12089 | -70.79488 | 34938 ft | 503 kts | 77° |
| 2026-05-05 14:53 | 42.13492 | -70.70280 | 34935 ft | 503 kts | 77° |
| 2026-05-05 14:53 | 42.14887 | -70.61062 | 34929 ft | 503 kts | 77° |
| 2026-05-05 14:54 | 42.16274 | -70.51852 | 34929 ft | 502 kts | 77° |
| 2026-05-05 14:54 | 42.17650 | -70.42663 | 34932 ft | 502 kts | 77° |
| 2026-05-05 14:55 | 42.19017 | -70.33478 | 34937 ft | 502 kts | 77° |
| 2026-05-05 14:55 | 42.20376 | -70.24291 | 34941 ft | 502 kts | 77° |
| 2026-05-05 14:56 | 42.21733 | -70.15067 | 34951 ft | 502 kts | 77° |
| 2026-05-05 14:56 | 42.23080 | -70.05856 | 34962 ft | 502 kts | 77° |
| 2026-05-05 14:57 | 42.24409 | -69.96709 | 34967 ft | 501 kts | 77° |
| 2026-05-05 14:57 | 42.25740 | -69.87496 | 34971 ft | 500 kts | 77° |
| 2026-05-05 14:58 | 42.27062 | -69.78298 | 34969 ft | 501 kts | 77° |
| 2026-05-05 14:58 | 42.28373 | -69.69118 | 34965 ft | 502 kts | 77° |
| 2026-05-05 14:59 | 42.29683 | -69.59890 | 34962 ft | 502 kts | 77° |
| 2026-05-05 14:59 | 42.30984 | -69.50670 | 34961 ft | 502 kts | 77° |
| 2026-05-05 15:00 | 42.32072 | -69.42913 | 34960 ft | 502 kts | 77° |
| 2026-05-05 15:00 | 42.33570 | -69.32179 | 34954 ft | 503 kts | 78° |
| 2026-05-05 15:01 | 42.34861 | -69.22855 | 34951 ft | 504 kts | 78° |
| 2026-05-05 15:01 | 42.36136 | -69.13588 | 34949 ft | 505 kts | 78° |
| 2026-05-05 15:02 | 42.37403 | -69.04321 | 34955 ft | 505 kts | 77° |
| 2026-05-05 15:02 | 42.38677 | -68.94949 | 34963 ft | 506 kts | 77° |
| 2026-05-05 15:03 | 42.39935 | -68.85630 | 34966 ft | 506 kts | 77° |
| 2026-05-05 15:03 | 42.41191 | -68.76272 | 34965 ft | 507 kts | 77° |
| 2026-05-05 15:04 | 42.42438 | -68.66917 | 34962 ft | 506 kts | 77° |
| 2026-05-05 15:04 | 42.43674 | -68.57587 | 34960 ft | 506 kts | 77° |
| 2026-05-05 15:05 | 42.45518 | -68.43550 | 34957 ft | 507 kts | 77° |
| 2026-05-05 15:06 | 42.46734 | -68.34214 | 34955 ft | 507 kts | 78° |
| 2026-05-05 15:06 | 42.47949 | -68.24831 | 34947 ft | 507 kts | 78° |
| 2026-05-05 15:07 | 42.49152 | -68.15471 | 34949 ft | 506 kts | 78° |
| 2026-05-05 15:07 | 42.50353 | -68.06063 | 34961 ft | 506 kts | 78° |
| 2026-05-05 15:08 | 42.51537 | -67.96726 | 34971 ft | 505 kts | 78° |
| 2026-05-05 15:08 | 42.52711 | -67.87407 | 34972 ft | 502 kts | 79° |
| 2026-05-05 15:09 | 42.53873 | -67.78116 | 34971 ft | 501 kts | 79° |
| 2026-05-05 15:09 | 42.55026 | -67.68841 | 34972 ft | 502 kts | 79° |
| 2026-05-05 15:10 | 42.56173 | -67.59544 | 34973 ft | 502 kts | 79° |
| 2026-05-05 15:10 | 42.57310 | -67.50269 | 34976 ft | 502 kts | 79° |
| 2026-05-05 15:11 | 42.58445 | -67.40942 | 34979 ft | 503 kts | 79° |
| 2026-05-05 15:11 | 42.59576 | -67.31580 | 34977 ft | 503 kts | 79° |
| 2026-05-05 15:12 | 42.60696 | -67.22253 | 34976 ft | 503 kts | 79° |
| 2026-05-05 15:12 | 42.61805 | -67.12941 | 34977 ft | 504 kts | 79° |
| 2026-05-05 15:13 | 42.62918 | -67.03551 | 34977 ft | 504 kts | 78° |
| 2026-05-05 15:13 | 42.64978 | -66.94617 | 34979 ft | 500 kts | 63° |
| 2026-05-05 15:14 | 42.67967 | -66.86115 | 34982 ft | 500 kts | 62° |
| 2026-05-05 15:14 | 42.70934 | -66.77612 | 34983 ft | 500 kts | 62° |
| 2026-05-05 15:15 | 42.73891 | -66.69030 | 34984 ft | 500 kts | 62° |
| 2026-05-05 15:15 | 42.76794 | -66.60534 | 34986 ft | 500 kts | 62° |
| 2026-05-05 15:16 | 42.79717 | -66.51929 | 34988 ft | 501 kts | 62° |
| 2026-05-05 15:16 | 42.82609 | -66.43378 | 34990 ft | 501 kts | 62° |
| 2026-05-05 15:17 | 42.85517 | -66.34746 | 34992 ft | 501 kts | 63° |
| 2026-05-05 15:17 | 42.88399 | -66.26157 | 34987 ft | 501 kts | 63° |
| 2026-05-05 15:18 | 42.91293 | -66.17507 | 34988 ft | 501 kts | 63° |
| 2026-05-05 15:18 | 42.94156 | -66.08919 | 34990 ft | 501 kts | 63° |
| 2026-05-05 15:19 | 42.97031 | -66.00265 | 34993 ft | 501 kts | 63° |
| 2026-05-05 15:19 | 42.99895 | -65.91618 | 34998 ft | 502 kts | 63° |
| 2026-05-05 15:20 | 43.02763 | -65.82930 | 35001 ft | 502 kts | 63° |
| 2026-05-05 15:20 | 43.05615 | -65.74262 | 35001 ft | 502 kts | 63° |
| 2026-05-05 15:21 | 43.08461 | -65.65584 | 35000 ft | 502 kts | 62° |
| 2026-05-05 15:21 | 43.11303 | -65.56894 | 35004 ft | 503 kts | 62° |
| 2026-05-05 15:22 | 43.14136 | -65.48199 | 35005 ft | 503 kts | 62° |
| 2026-05-05 15:22 | 43.16961 | -65.39501 | 35006 ft | 502 kts | 62° |
| 2026-05-05 15:23 | 43.19796 | -65.30747 | 34999 ft | 502 kts | 63° |
| 2026-05-05 15:23 | 43.22612 | -65.22020 | 34997 ft | 503 kts | 63° |
| 2026-05-05 15:24 | 43.25419 | -65.13292 | 34996 ft | 502 kts | 63° |
| 2026-05-05 15:24 | 43.28216 | -65.04569 | 34995 ft | 503 kts | 63° |
| 2026-05-05 15:25 | 43.31025 | -64.95770 | 34996 ft | 503 kts | 63° |
| 2026-05-05 15:25 | 43.33817 | -64.87006 | 34995 ft | 503 kts | 63° |
| 2026-05-05 15:26 | 43.36597 | -64.78250 | 35000 ft | 503 kts | 63° |
| 2026-05-05 15:26 | 43.39367 | -64.69493 | 35012 ft | 503 kts | 63° |
| 2026-05-05 15:27 | 43.42151 | -64.60665 | 35022 ft | 503 kts | 63° |
| 2026-05-05 15:27 | 43.44920 | -64.51854 | 35023 ft | 503 kts | 63° |
| 2026-05-05 15:28 | 43.47677 | -64.43051 | 35018 ft | 503 kts | 63° |
| 2026-05-05 15:28 | 43.50421 | -64.34261 | 35005 ft | 503 kts | 64° |
| 2026-05-05 15:29 | 43.53185 | -64.25375 | 34990 ft | 504 kts | 64° |
| 2026-05-05 15:29 | 43.55918 | -64.16560 | 34992 ft | 504 kts | 64° |
| 2026-05-05 15:30 | 43.58666 | -64.07666 | 34997 ft | 504 kts | 64° |
| 2026-05-05 15:30 | 43.61391 | -63.98815 | 34999 ft | 505 kts | 64° |
| 2026-05-05 15:31 | 43.64112 | -63.89951 | 35002 ft | 505 kts | 64° |
| 2026-05-05 15:31 | 43.66837 | -63.81041 | 35005 ft | 505 kts | 63° |
| 2026-05-05 15:32 | 43.69551 | -63.72135 | 35006 ft | 505 kts | 63° |
| 2026-05-05 15:32 | 43.72259 | -63.63217 | 35008 ft | 505 kts | 63° |
| 2026-05-05 15:33 | 43.74949 | -63.54329 | 35012 ft | 505 kts | 63° |
| 2026-05-05 15:33 | 43.77644 | -63.45394 | 35015 ft | 504 kts | 63° |
| 2026-05-05 15:34 | 43.80337 | -63.36436 | 35020 ft | 504 kts | 63° |
| 2026-05-05 15:34 | 43.83009 | -63.27515 | 35018 ft | 505 kts | 64° |
| 2026-05-05 15:35 | 43.85679 | -63.18569 | 35022 ft | 505 kts | 64° |
| 2026-05-05 15:35 | 43.88353 | -63.09579 | 35023 ft | 505 kts | 64° |
| 2026-05-05 15:36 | 43.91003 | -63.00638 | 35025 ft | 505 kts | 64° |
| 2026-05-05 15:36 | 43.93658 | -62.91645 | 35028 ft | 505 kts | 64° |
| 2026-05-05 15:37 | 43.96303 | -62.82658 | 35031 ft | 505 kts | 64° |
| 2026-05-05 15:37 | 43.98956 | -62.73613 | 35031 ft | 505 kts | 64° |
| 2026-05-05 15:38 | 44.01577 | -62.64641 | 35033 ft | 506 kts | 63° |
| 2026-05-05 15:38 | 44.04207 | -62.55611 | 35038 ft | 506 kts | 63° |
| 2026-05-05 15:39 | 44.06837 | -62.46543 | 35044 ft | 507 kts | 63° |
| 2026-05-05 15:39 | 44.09458 | -62.37476 | 35046 ft | 508 kts | 63° |
| 2026-05-05 15:40 | 44.12073 | -62.28398 | 35039 ft | 508 kts | 63° |
| 2026-05-05 15:40 | 44.14697 | -62.19255 | 35040 ft | 508 kts | 63° |
| 2026-05-05 15:41 | 44.17291 | -62.10181 | 35042 ft | 508 kts | 63° |
| 2026-05-05 15:41 | 44.19878 | -62.01100 | 35044 ft | 508 kts | 63° |
| 2026-05-05 15:42 | 44.22473 | -61.91954 | 35046 ft | 508 kts | 63° |
| 2026-05-05 15:42 | 44.25063 | -61.82794 | 35047 ft | 508 kts | 63° |
| 2026-05-05 15:43 | 44.27639 | -61.73649 | 35049 ft | 508 kts | 63° |
| 2026-05-05 15:43 | 44.30204 | -61.64513 | 35051 ft | 508 kts | 63° |
| 2026-05-05 15:44 | 44.32759 | -61.55377 | 35054 ft | 508 kts | 63° |
| 2026-05-05 15:44 | 44.35322 | -61.46176 | 35057 ft | 509 kts | 63° |
| 2026-05-05 15:45 | 44.37863 | -61.37023 | 35060 ft | 509 kts | 63° |
| 2026-05-05 15:45 | 44.40415 | -61.27794 | 35053 ft | 510 kts | 64° |
| 2026-05-05 15:46 | 44.42951 | -61.18587 | 35054 ft | 511 kts | 64° |
| 2026-05-05 15:46 | 44.45494 | -61.09320 | 35053 ft | 511 kts | 64° |
| 2026-05-05 15:47 | 44.48019 | -61.00083 | 35054 ft | 511 kts | 64° |
| 2026-05-05 15:47 | 44.50554 | -60.90774 | 35058 ft | 512 kts | 64° |
| 2026-05-05 15:48 | 44.53080 | -60.81466 | 35061 ft | 512 kts | 63° |
| 2026-05-05 15:48 | 44.55577 | -60.72223 | 35065 ft | 512 kts | 63° |
| 2026-05-05 15:49 | 44.58085 | -60.62907 | 35067 ft | 512 kts | 63° |
| 2026-05-05 15:49 | 44.60595 | -60.53547 | 35069 ft | 513 kts | 63° |
| 2026-05-05 15:50 | 44.63078 | -60.44251 | 35070 ft | 513 kts | 63° |
| 2026-05-05 15:50 | 44.65564 | -60.34907 | 35072 ft | 513 kts | 64° |
| 2026-05-05 15:51 | 44.68058 | -60.25496 | 35062 ft | 514 kts | 64° |
| 2026-05-05 15:51 | 44.70522 | -60.16162 | 35063 ft | 514 kts | 64° |
| 2026-05-05 15:52 | 44.72994 | -60.06762 | 35063 ft | 514 kts | 64° |
| 2026-05-05 15:52 | 44.75453 | -59.97371 | 35062 ft | 514 kts | 64° |
| 2026-05-05 15:53 | 44.77902 | -59.87985 | 35055 ft | 514 kts | 64° |
| 2026-05-05 15:53 | 44.80354 | -59.78547 | 35067 ft | 516 kts | 64° |
| 2026-05-05 15:54 | 44.82799 | -59.69098 | 35088 ft | 517 kts | 64° |
| 2026-05-05 15:54 | 44.85246 | -59.59604 | 35086 ft | 517 kts | 64° |
| 2026-05-05 15:55 | 44.87680 | -59.50120 | 35077 ft | 518 kts | 64° |
| 2026-05-05 15:55 | 44.90127 | -59.40545 | 35073 ft | 519 kts | 64° |
| 2026-05-05 15:56 | 44.92556 | -59.31003 | 35058 ft | 519 kts | 65° |
| 2026-05-05 15:56 | 44.94976 | -59.21460 | 35053 ft | 520 kts | 65° |
| 2026-05-05 15:57 | 44.97384 | -59.11923 | 35049 ft | 520 kts | 65° |
| 2026-05-05 15:57 | 44.99807 | -59.02285 | 35045 ft | 521 kts | 65° |
| 2026-05-05 15:58 | 45.02217 | -58.92661 | 35043 ft | 521 kts | 65° |
| 2026-05-05 15:58 | 45.04600 | -58.83103 | 35040 ft | 521 kts | 65° |
| 2026-05-05 15:59 | 45.06997 | -58.73450 | 35038 ft | 521 kts | 65° |
| 2026-05-05 15:59 | 45.09383 | -58.63798 | 35036 ft | 521 kts | 65° |
| 2026-05-05 16:00 | 45.11756 | -58.54158 | 35042 ft | 522 kts | 65° |
| 2026-05-05 16:00 | 45.14130 | -58.44473 | 35042 ft | 522 kts | 65° |
| 2026-05-05 16:01 | 45.16496 | -58.34781 | 35042 ft | 523 kts | 66° |
| 2026-05-05 16:01 | 45.18860 | -58.25056 | 35030 ft | 523 kts | 66° |
| 2026-05-05 16:02 | 45.21222 | -58.15292 | 35031 ft | 523 kts | 66° |
| 2026-05-05 16:02 | 45.23553 | -58.05620 | 35034 ft | 524 kts | 66° |
| 2026-05-05 16:03 | 45.25892 | -57.95869 | 35038 ft | 524 kts | 66° |
| 2026-05-05 16:03 | 45.28236 | -57.86058 | 35038 ft | 525 kts | 66° |
| 2026-05-05 16:04 | 45.30561 | -57.76276 | 35015 ft | 525 kts | 66° |
| 2026-05-05 16:04 | 45.32879 | -57.66490 | 35011 ft | 527 kts | 66° |
| 2026-05-05 16:05 | 45.35206 | -57.56620 | 35028 ft | 528 kts | 66° |
| 2026-05-05 16:05 | 45.37528 | -57.46719 | 35030 ft | 528 kts | 66° |
| 2026-05-05 16:06 | 45.39820 | -57.36907 | 35029 ft | 528 kts | 66° |
| 2026-05-05 16:06 | 45.42136 | -57.26947 | 35018 ft | 528 kts | 68° |
| 2026-05-05 16:07 | 45.44417 | -57.17092 | 35016 ft | 528 kts | 68° |
| 2026-05-05 16:07 | 45.46703 | -57.07175 | 35017 ft | 529 kts | 68° |
| 2026-05-05 16:08 | 45.48984 | -56.97230 | 35015 ft | 529 kts | 68° |
| 2026-05-05 16:08 | 45.51247 | -56.87318 | 35016 ft | 530 kts | 68° |
| 2026-05-05 16:09 | 45.53520 | -56.77317 | 35015 ft | 530 kts | 68° |
| 2026-05-05 16:09 | 45.55771 | -56.67367 | 35016 ft | 531 kts | 69° |
| 2026-05-05 16:10 | 45.58020 | -56.57380 | 35016 ft | 532 kts | 69° |
| 2026-05-05 16:10 | 45.60268 | -56.47351 | 35016 ft | 532 kts | 69° |
| 2026-05-05 16:11 | 45.62513 | -56.37284 | 35018 ft | 532 kts | 69° |
| 2026-05-05 16:12 | 45.66958 | -56.17216 | 35009 ft | 533 kts | 70° |
| 2026-05-05 16:13 | 45.72497 | -55.91938 | 35008 ft | 534 kts | 70° |
| 2026-05-05 16:13 | 45.74694 | -55.81822 | 35009 ft | 534 kts | 70° |
| 2026-05-05 16:14 | 45.79055 | -55.61607 | 35013 ft | 535 kts | 70° |
| 2026-05-05 16:15 | 45.83405 | -55.41240 | 35015 ft | 536 kts | 70° |
| 2026-05-05 16:16 | 45.87719 | -55.20841 | 35002 ft | 538 kts | 71° |
| 2026-05-05 16:17 | 45.90950 | -55.05428 | 35008 ft | 539 kts | 72° |
| 2026-05-05 16:18 | 45.94149 | -54.90054 | 35008 ft | 540 kts | 72° |
| 2026-05-05 16:19 | 45.97336 | -54.74616 | 35006 ft | 541 kts | 72° |
| 2026-05-05 16:19 | 46.00522 | -54.59065 | 35006 ft | 542 kts | 72° |
| 2026-05-05 16:20 | 46.04734 | -54.38319 | 35002 ft | 542 kts | 72° |
| 2026-05-05 16:22 | 46.09940 | -54.12365 | 35001 ft | 542 kts | 73° |
| 2026-05-05 16:23 | 46.14076 | -53.91506 | 35000 ft | 543 kts | 73° |
| 2026-05-05 16:23 | 46.17151 | -53.75855 | 35003 ft | 543 kts | 73° |
| 2026-05-05 16:24 | 46.19193 | -53.65385 | 35001 ft | 543 kts | 73° |
| 2026-05-05 16:25 | 46.22225 | -53.49737 | 34997 ft | 543 kts | 73° |
| 2026-05-05 16:25 | 46.25242 | -53.34042 | 34992 ft | 542 kts | 74° |
| 2026-05-05 16:26 | 46.29235 | -53.13063 | 34978 ft | 543 kts | 74° |
| 2026-05-05 16:27 | 46.31225 | -53.02520 | 34958 ft | 543 kts | 75° |
| 2026-05-05 16:27 | 46.33200 | -52.91997 | 34938 ft | 544 kts | 75° |
| 2026-05-05 16:28 | 46.35162 | -52.81491 | 34937 ft | 544 kts | 75° |
| 2026-05-05 16:28 | 46.37118 | -52.70951 | 34940 ft | 544 kts | 75° |
| 2026-05-05 16:29 | 46.39069 | -52.60377 | 34942 ft | 545 kts | 75° |
| 2026-05-05 16:29 | 46.40996 | -52.49881 | 34946 ft | 545 kts | 75° |
| 2026-05-05 16:30 | 46.42932 | -52.39270 | 34958 ft | 546 kts | 75° |
| 2026-05-05 16:30 | 46.44861 | -52.28634 | 34962 ft | 546 kts | 76° |
| 2026-05-05 16:31 | 46.46780 | -52.17996 | 34960 ft | 547 kts | 76° |
| 2026-05-05 16:31 | 46.48692 | -52.07332 | 34958 ft | 547 kts | 76° |
| 2026-05-05 16:32 | 46.50636 | -51.96680 | 34954 ft | 548 kts | 72° |
| 2026-05-05 16:32 | 46.53326 | -51.86418 | 34958 ft | 549 kts | 68° |
| 2026-05-05 16:33 | 46.56087 | -51.76105 | 34959 ft | 549 kts | 68° |
| 2026-05-05 16:33 | 46.58802 | -51.65774 | 35023 ft | 553 kts | 69° |
| 2026-05-05 16:34 | 46.60161 | -51.60551 | 35326 ft | 551 kts | 69° |
| 2026-05-05 16:34 | 46.61504 | -51.55365 | 35717 ft | 546 kts | 69° |
| 2026-05-05 16:34 | 46.62842 | -51.50171 | 36009 ft | 544 kts | 69° |
| 2026-05-05 16:34 | 46.64166 | -51.45012 | 36176 ft | 546 kts | 69° |
| 2026-05-05 16:35 | 46.65478 | -51.39880 | 36318 ft | 547 kts | 69° |
| 2026-05-05 16:35 | 46.66795 | -51.34717 | 36494 ft | 547 kts | 70° |
| 2026-05-05 16:35 | 46.68115 | -51.29518 | 36655 ft | 548 kts | 70° |
| 2026-05-05 16:35 | 46.69434 | -51.24316 | 36791 ft | 548 kts | 70° |
| 2026-05-05 16:36 | 46.70743 | -51.19135 | 36924 ft | 549 kts | 70° |
| 2026-05-05 16:36 | 46.72058 | -51.13916 | 36961 ft | 550 kts | 70° |
| 2026-05-05 16:36 | 46.74680 | -51.03473 | 36973 ft | 549 kts | 70° |
| 2026-05-05 16:37 | 46.77265 | -50.93131 | 36975 ft | 548 kts | 70° |
| 2026-05-05 16:37 | 46.79857 | -50.82705 | 36977 ft | 548 kts | 70° |
| 2026-05-05 16:38 | 46.82442 | -50.72261 | 36979 ft | 548 kts | 71° |
| 2026-05-05 16:38 | 46.85021 | -50.61794 | 36981 ft | 549 kts | 71° |
| 2026-05-05 16:39 | 46.87585 | -50.51336 | 36983 ft | 549 kts | 71° |
| 2026-05-05 16:39 | 46.90145 | -50.40850 | 36984 ft | 550 kts | 71° |
| 2026-05-05 16:40 | 46.92701 | -50.30328 | 36976 ft | 550 kts | 71° |
| 2026-05-05 16:40 | 46.95231 | -50.19860 | 36977 ft | 549 kts | 71° |
| 2026-05-05 16:41 | 46.97756 | -50.09367 | 36985 ft | 550 kts | 71° |
| 2026-05-05 16:41 | 47.00287 | -49.98803 | 36993 ft | 550 kts | 71° |
| 2026-05-05 16:42 | 47.02902 | -49.88381 | 36996 ft | 549 kts | 70° |
| 2026-05-05 16:42 | 47.05541 | -49.77896 | 36999 ft | 549 kts | 70° |
| 2026-05-05 16:43 | 47.08166 | -49.67401 | 37002 ft | 550 kts | 71° |
| 2026-05-05 16:43 | 47.10781 | -49.56888 | 36998 ft | 551 kts | 71° |
| 2026-05-05 16:44 | 47.13386 | -49.46359 | 36997 ft | 551 kts | 71° |
| 2026-05-05 16:44 | 47.15990 | -49.35780 | 36999 ft | 551 kts | 71° |
| 2026-05-05 16:45 | 47.18556 | -49.25305 | 36991 ft | 550 kts | 72° |
| 2026-05-05 16:45 | 47.21131 | -49.14741 | 36993 ft | 550 kts | 72° |
| 2026-05-05 16:46 | 47.23269 | -49.05935 | 36995 ft | 550 kts | 72° |